Time;durP1;ratioP1;P1;durP2;ratioP2;P2;SDS_P1;SDS_P2;PMS_P1;PMS_P2;Temp;Humidity;BMP_temperature;BMP_pressure;BME280_temperature;BME280_humidity;BME280_pressure;Samples;Min_cycle;Max_cycle;Signal;HPM_P1;HPM_P2
2021/12/08 00:01:45;;;;;;;;;;;7.30;99.90;;;7.42;100.00;98892.81;5095016;28;19960;-64
2021/12/08 00:04:13;;;;;;;;;;;7.40;99.90;;;7.46;99.97;98888.34;5094861;28;20361;-64
2021/12/08 00:06:42;;;;;;;;;;;7.40;99.90;;;7.59;99.74;98889.78;5094986;28;19998;-64
2021/12/08 00:09:26;;;;;;;;;;;7.50;99.90;;;7.60;99.07;98887.13;5094894;28;20330;-64
2021/12/08 00:14:40;;;;;;;;;;;7.60;99.90;;;7.06;97.90;98755.25;5077025;28;20365;-64
2021/12/08 00:17:08;;;;;;;;;;;7.70;99.90;;;7.79;97.57;98885.75;5095372;28;19920;-64
2021/12/08 00:19:36;;;;;;;;;;;7.70;99.90;;;7.85;96.99;98877.72;5094907;28;19949;-64
2021/12/08 00:22:05;;;;;;;;;;;7.80;99.90;;;7.81;96.63;98852.38;5076732;28;20014;-64
2021/12/08 00:24:34;;;;;;;;;;;7.80;99.90;;;7.83;96.18;98854.97;5094566;28;19920;-64
2021/12/08 00:27:03;;;;;;;;;;;7.80;99.90;;;7.73;96.35;98853.47;5094803;28;19969;-64
2021/12/08 00:29:33;;;;;;;;;;;7.80;99.90;;;7.87;96.18;98878.53;5076685;28;19985;-64
2021/12/08 00:32:01;;;;;;;;;;;7.70;99.90;;;7.91;96.26;98868.78;5094455;28;19934;-64
2021/12/08 00:34:32;;;;;;;;;;;7.80;99.90;;;7.88;96.30;98869.72;5094358;28;19919;-64
2021/12/08 00:37:01;;;;;;;;;;;7.80;99.90;;;7.91;95.79;98889.84;5094650;28;20352;-64
2021/12/08 00:39:29;;;;;;;;;;;7.80;99.90;;;7.96;95.92;98894.06;5094261;28;19924;-64
2021/12/08 00:41:59;;;;;;;;;;;7.80;99.90;;;7.99;95.30;98875.56;5094607;28;19939;-64
2021/12/08 00:44:27;;;;;;;;;;;7.80;99.90;;;8.02;95.69;98880.75;5094236;28;19924;-64
2021/12/08 00:46:55;;;;;;;;;;;7.90;99.90;;;8.03;95.32;98890.38;5094491;28;20379;-64
2021/12/08 00:49:23;;;;;;;;;;;7.90;99.90;;;8.00;95.30;98908.00;5094800;28;19960;-65
2021/12/08 00:51:53;;;;;;;;;;;7.90;99.90;;;8.01;95.14;98886.91;5094124;28;19927;-64
2021/12/08 00:54:23;;;;;;;;;;;7.90;99.90;;;8.03;95.20;98893.00;5076206;28;19921;-64
2021/12/08 00:56:52;;;;;;;;;;;7.90;99.90;;;8.02;95.23;98887.78;5094328;28;20347;-65
2021/12/08 00:59:21;;;;;;;;;;;7.90;99.90;;;8.06;94.64;98882.41;5094219;28;19920;-64
2021/12/08 01:01:52;;;;;;;;;;;8.00;99.90;;;8.07;94.47;98902.56;5093854;28;19998;-65
2021/12/08 01:04:21;;;;;;;;;;;7.90;99.90;;;8.02;94.80;98904.44;5093901;28;20247;-64
2021/12/08 01:06:49;;;;;;;;;;;7.90;99.90;;;8.09;94.21;98913.91;5076208;28;20056;-64
2021/12/08 01:09:18;;;;;;;;;;;7.90;99.90;;;8.06;94.16;98905.22;5094087;28;19981;-65
2021/12/08 01:11:47;;;;;;;;;;;7.90;99.90;;;8.04;94.28;98917.56;5094100;28;19920;-65
2021/12/08 01:14:16;;;;;;;;;;;7.90;99.90;;;8.06;94.20;98937.69;5093801;28;19920;-64
2021/12/08 01:16:47;;;;;;;;;;;8.00;99.90;;;8.10;94.28;98941.97;5093962;28;19920;-65
2021/12/08 01:19:15;;;;;;;;;;;8.00;99.90;;;8.11;93.98;98951.59;5094085;28;19928;-64
2021/12/08 01:21:45;;;;;;;;;;;8.00;99.90;;;8.14;94.26;98950.66;5093709;28;19923;-65
2021/12/08 01:24:13;;;;;;;;;;;8.00;99.90;;;8.11;93.89;98929.66;5093939;28;19967;-65
2021/12/08 01:26:41;;;;;;;;;;;8.00;99.90;;;8.12;93.78;98932.28;5093918;28;20381;-65
2021/12/08 01:29:10;;;;;;;;;;;8.00;99.90;;;8.16;93.80;98939.19;5093618;28;19950;-64
2021/12/08 01:31:41;;;;;;;;;;;8.00;99.90;;;8.18;93.71;98936.50;5093586;28;20338;-64
2021/12/08 01:34:13;;;;;;;;;;;8.10;99.90;;;8.14;93.84;98951.53;5093916;28;19920;-64
2021/12/08 01:36:42;;;;;;;;;;;8.00;99.90;;;8.21;93.58;98950.47;5093619;28;19951;-64
2021/12/08 01:39:11;;;;;;;;;;;8.10;99.90;;;8.20;93.81;98955.78;5093951;28;20364;-64
2021/12/08 01:41:40;;;;;;;;;;;8.10;99.90;;;8.36;93.89;98943.09;5093777;28;19981;-65
2021/12/08 01:46:56;;;;;;;;;;;8.20;99.90;;;8.42;94.05;98959.59;5094326;28;19920;-65
2021/12/08 01:49:26;;;;;;;;;;;8.20;99.90;;;8.51;93.53;98974.28;5078862;28;19932;-65
2021/12/08 01:51:55;;;;;;;;;;;8.30;99.90;;;8.48;93.31;98972.59;5097570;28;19920;-65
2021/12/08 01:54:24;;;;;;;;;;;8.30;99.90;;;8.42;93.45;98958.75;5097758;28;20027;-65
2021/12/08 01:56:52;;;;;;;;;;;8.30;99.90;;;8.35;93.54;98965.94;5097759;28;19920;-64
2021/12/08 01:59:21;;;;;;;;;;;8.30;99.90;;;8.40;93.78;98964.03;5097330;28;19973;-65
2021/12/08 02:01:49;;;;;;;;;;;8.20;99.90;;;8.36;93.45;98965.03;5079487;28;19959;-65
2021/12/08 02:04:18;;;;;;;;;;;8.20;99.90;;;8.33;93.27;98957.22;5079477;28;19920;-64
2021/12/08 02:06:49;;;;;;;;;;;8.20;99.90;;;8.36;93.56;98969.44;5097534;28;20290;-65
2021/12/08 02:09:18;;;;;;;;;;;8.20;99.90;;;8.26;92.85;98974.09;5097500;28;19919;-65
2021/12/08 02:11:52;;;;;;;;;;;8.10;99.90;;;8.31;93.31;98971.31;5079253;28;20423;-65
2021/12/08 02:14:22;;;;;;;;;;;8.20;99.90;;;8.23;93.99;98972.34;5097148;28;19942;-65
2021/12/08 02:16:52;;;;;;;;;;;8.10;99.90;;;8.22;94.26;98969.75;5097363;28;20351;-64
2021/12/08 02:19:21;;;;;;;;;;;8.10;99.90;;;8.25;93.72;98979.38;5096983;28;19920;-64
2021/12/08 02:21:52;;;;;;;;;;;8.10;99.90;;;8.35;93.57;98988.75;5097307;28;19920;-64
2021/12/08 02:24:22;;;;;;;;;;;8.20;99.90;;;8.40;93.53;98985.09;5097590;28;19927;-64
2021/12/08 02:26:52;;;;;;;;;;;8.20;99.90;;;8.36;93.25;98983.50;5078679;28;19969;-64
2021/12/08 02:29:30;;;;;;;;;;;8.20;99.90;;;8.38;93.53;98991.34;5097407;28;20014;-64
2021/12/08 02:32:06;;;;;;;;;;;8.20;99.90;;;8.45;93.24;98998.16;5096764;28;19920;-64
2021/12/08 02:48:49;;;;;;;;;;;8.10;99.90;;;8.27;90.94;98994.22;5096429;28;20353;-64
2021/12/08 02:51:20;;;;;;;;;;;8.10;99.90;;;8.21;90.84;98984.69;5096429;28;19919;-64
2021/12/08 02:53:50;;;;;;;;;;;8.10;99.90;;;7.91;90.31;98959.13;5096671;28;19919;-64
2021/12/08 02:56:18;;;;;;;;;;;8.00;99.90;;;8.02;90.25;98993.06;5096368;28;19920;-65
2021/12/08 02:58:48;;;;;;;;;;;7.90;99.90;;;8.09;89.86;99006.06;5095903;28;20038;-64
2021/12/08 03:01:18;;;;;;;;;;;7.90;99.90;;;8.00;89.07;98993.13;5095245;28;19927;-64
2021/12/08 03:03:50;;;;;;;;;;;7.90;99.90;;;7.98;88.87;99015.97;5095961;28;19924;-64
2021/12/08 03:06:18;;;;;;;;;;;7.90;99.90;;;7.90;87.99;99009.16;5096230;28;19920;-64
2021/12/08 03:08:50;;;;;;;;;;;7.80;99.90;;;7.92;87.85;98996.81;5096254;28;19950;-63
2021/12/08 03:11:18;;;;;;;;;;;7.70;99.90;;;7.99;87.70;98995.78;5078194;28;19920;-64
2021/12/08 03:14:01;;;;;;;;;;;7.80;99.90;;;8.02;87.07;98995.72;5095933;28;19920;-64
2021/12/08 03:16:30;;;;;;;;;;;7.90;99.90;;;7.95;87.01;98996.78;5095985;28;19920;-64
2021/12/08 03:18:58;;;;;;;;;;;7.90;99.90;;;7.82;87.40;98996.19;5096494;28;19951;-64
2021/12/08 03:21:30;;;;;;;;;;;7.70;99.90;;;7.86;87.94;99007.50;5095779;28;20381;-64
2021/12/08 03:24:17;;;;;;;;;;;7.70;99.90;;;7.88;87.72;99001.31;5096101;28;20294;-63
2021/12/08 03:26:54;;;;;;;;;;;7.80;99.90;;;7.81;88.39;99006.75;5095770;28;19994;-64
2021/12/08 03:29:32;;;;;;;;;;;7.70;99.90;;;7.85;88.36;99001.41;5096336;28;19920;-63
2021/12/08 03:32:05;;;;;;;;;;;7.70;99.90;;;7.82;88.16;99009.34;5095995;28;19920;-63
2021/12/08 03:34:38;;;;;;;;;;;7.70;99.90;;;7.10;88.44;98892.69;5078055;28;20393;-63
2021/12/08 03:37:11;;;;;;;;;;;7.70;99.90;;;7.82;88.46;99014.59;5095488;28;19920;-63
2021/12/08 03:39:42;;;;;;;;;;;7.60;99.90;;;7.02;88.39;98889.38;5095724;28;19920;-63
2021/12/08 03:42:12;;;;;;;;;;;7.60;99.90;;;7.77;88.34;99003.34;5095661;28;19985;-63
2021/12/08 03:44:40;;;;;;;;;;;7.60;99.90;;;7.73;87.81;99030.63;5095705;28;19927;-63
2021/12/08 03:47:16;;;;;;;;;;;7.60;99.90;;;7.72;87.96;99014.88;5095677;28;20296;-63
2021/12/08 03:49:47;;;;;;;;;;;7.60;99.90;;;7.68;88.12;99008.81;5095623;28;20343;-64
2021/12/08 03:52:15;;;;;;;;;;;7.50;99.90;;;7.64;87.78;99017.69;5095908;28;19924;-63
2021/12/08 03:54:45;;;;;;;;;;;7.50;99.90;;;7.57;87.75;99031.84;5095213;28;20006;-64
2021/12/08 03:57:13;;;;;;;;;;;7.50;99.90;;;7.56;88.08;99016.09;5095405;28;19969;-63
2021/12/08 03:59:41;;;;;;;;;;;7.50;99.90;;;7.53;87.78;99043.31;5095000;28;20337;-64
2021/12/08 04:02:10;;;;;;;;;;;7.40;99.90;;;7.50;87.79;99040.78;5095071;28;19927;-63
2021/12/08 04:04:44;;;;;;;;;;;7.40;99.90;;;7.49;87.70;99039.03;5076912;28;20361;-63
2021/12/08 04:07:14;;;;;;;;;;;7.40;99.90;;;7.47;87.54;99026.84;5095051;28;20359;-63
2021/12/08 04:09:47;;;;;;;;;;;7.40;99.90;;;7.55;87.25;99024.91;5077034;28;20320;-63
2021/12/08 04:12:17;;;;;;;;;;;7.40;99.90;;;7.55;87.39;99023.13;5094591;28;19930;-63
2021/12/08 04:14:49;;;;;;;;;;;7.40;99.90;;;7.49;87.43;99023.25;5094790;28;19924;-63
2021/12/08 04:17:20;;;;;;;;;;;7.40;99.90;;;7.49;87.31;99033.78;5077216;28;19924;-63
2021/12/08 04:19:49;;;;;;;;;;;7.40;99.90;;;7.41;87.25;99045.38;5095277;28;19927;-63
2021/12/08 04:22:19;;;;;;;;;;;7.30;99.90;;;7.41;87.13;99030.47;5094947;28;19942;-63
2021/12/08 04:24:50;;;;;;;;;;;7.30;99.90;;;7.40;86.97;99033.09;5076822;28;20362;-64
2021/12/08 04:27:22;;;;;;;;;;;7.30;99.90;;;6.80;86.83;98945.88;5094876;28;20365;-63
2021/12/08 04:29:51;;;;;;;;;;;7.30;99.90;;;6.67;86.78;98929.50;5094865;28;20430;-63
2021/12/08 04:32:21;;;;;;;;;;;7.30;99.90;;;7.33;86.69;99071.81;5094719;28;20353;-64
2021/12/08 04:34:51;;;;;;;;;;;7.30;99.90;;;7.25;86.60;99061.47;5076529;28;20362;-63
2021/12/08 04:37:27;;;;;;;;;;;7.20;99.90;;;7.13;86.40;99050.31;5094453;28;19955;-63
2021/12/08 04:40:10;;;;;;;;;;;7.20;99.90;;;7.30;86.50;99080.63;5094393;28;19924;-63
2021/12/08 04:42:53;;;;;;;;;;;7.20;99.90;;;7.33;86.65;99095.50;5094624;28;20327;-63
2021/12/08 04:45:28;;;;;;;;;;;7.20;99.90;;;7.34;86.32;99051.66;5076447;28;19919;-63
2021/12/08 04:48:13;;;;;;;;;;;7.30;99.90;;;7.37;85.95;99080.50;5095099;28;19961;-63
2021/12/08 04:51:15;;;;;;;;;;;7.30;99.90;;;7.32;86.05;99049.03;5076296;28;20289;-63
2021/12/08 04:54:03;;;;;;;;;;;7.30;99.90;;;7.16;85.91;99034.50;5094120;28;19924;-63
2021/12/08 05:02:26;;;;;;;;;;;7.20;99.90;;;7.38;85.31;99046.28;5094032;28;20551;-63
2021/12/08 05:05:11;;;;;;;;;;;7.20;99.90;;;7.32;85.51;99050.84;5094179;28;19920;-62
2021/12/08 05:07:50;;;;;;;;;;;7.30;99.90;;;7.32;85.40;99056.09;5075780;28;20022;-61
2021/12/08 05:10:21;;;;;;;;;;;7.30;99.90;;;7.30;85.32;99074.50;5094118;28;19962;-62
2021/12/08 05:12:52;;;;;;;;;;;7.20;99.90;;;7.29;85.14;99051.75;5093857;28;19923;-63
2021/12/08 05:15:25;;;;;;;;;;;7.20;99.90;;;7.21;84.95;99065.06;5075940;28;20442;-62
2021/12/08 05:17:56;;;;;;;;;;;7.20;99.90;;;7.13;85.30;99068.72;5075973;28;19920;-63
2021/12/08 05:20:32;;;;;;;;;;;7.10;99.90;;;7.15;85.17;99064.31;5093704;28;19946;-62
2021/12/08 05:23:05;;;;;;;;;;;7.10;99.90;;;7.11;85.20;99079.28;5093001;28;20328;-61
2021/12/08 05:25:35;;;;;;;;;;;7.00;99.90;;;7.07;85.42;99069.72;5093693;28;19920;-63
2021/12/08 05:28:09;;;;;;;;;;;7.00;99.90;;;7.15;85.29;99066.94;5094566;28;19920;-63
2021/12/08 05:30:41;;;;;;;;;;;7.10;99.90;;;7.09;85.06;99088.94;5093713;28;19920;-62
2021/12/08 05:33:11;;;;;;;;;;;7.00;99.90;;;7.04;85.43;99105.69;5093714;28;20301;-63
2021/12/08 05:35:40;;;;;;;;;;;7.00;99.90;;;7.09;85.24;99090.69;5075779;28;19931;-63
2021/12/08 05:38:09;;;;;;;;;;;7.00;99.90;;;7.11;85.44;99099.44;5075762;28;20391;-62
2021/12/08 05:40:40;;;;;;;;;;;7.00;99.90;;;7.06;85.33;99122.31;5093434;28;20015;-62
2021/12/08 05:43:10;;;;;;;;;;;7.00;99.90;;;7.04;85.36;99110.97;5093601;28;19927;-63
2021/12/08 05:45:40;;;;;;;;;;;7.00;99.90;;;6.99;85.51;99115.41;5093780;28;19966;-62
2021/12/08 05:48:09;;;;;;;;;;;6.90;99.90;;;6.92;85.34;99106.78;5093709;28;19927;-63
2021/12/08 05:50:42;;;;;;;;;;;6.90;99.90;;;6.92;85.68;99134.81;5093672;28;19943;-63
2021/12/08 05:53:11;;;;;;;;;;;6.90;99.90;;;7.01;85.26;99111.00;5093675;28;19920;-63
2021/12/08 05:55:41;;;;;;;;;;;6.90;99.90;;;6.98;85.49;99129.47;5093412;28;19926;-63
2021/12/08 05:58:12;;;;;;;;;;;6.90;99.90;;;7.00;85.48;99117.16;5093400;28;20331;-63
2021/12/08 06:00:44;;;;;;;;;;;6.90;99.90;;;7.00;85.32;99112.78;5093347;28;19919;-62
2021/12/08 06:03:12;;;;;;;;;;;6.90;99.90;;;6.92;85.05;99116.44;5093655;28;19927;-63
2021/12/08 06:05:44;;;;;;;;;;;6.90;99.90;;;6.84;85.29;99134.97;5094076;28;20006;-63
2021/12/08 06:08:12;;;;;;;;;;;6.80;99.90;;;6.84;85.62;99155.97;5093320;28;20293;-62
2021/12/08 06:10:42;;;;;;;;;;;6.80;99.90;;;6.91;85.71;99143.63;5093812;28;19920;-62
2021/12/08 06:13:13;;;;;;;;;;;6.80;99.90;;;6.92;85.46;99151.47;5093525;28;19919;-63
2021/12/08 06:15:43;;;;;;;;;;;6.80;99.90;;;6.89;85.22;99151.50;5093632;28;19920;-63
2021/12/08 06:18:12;;;;;;;;;;;6.80;99.90;;;6.84;85.14;99142.84;5075210;28;19970;-63
2021/12/08 06:20:41;;;;;;;;;;;6.80;99.90;;;6.88;85.16;99156.78;5093039;28;19920;-63
2021/12/08 06:23:10;;;;;;;;;;;6.80;99.90;;;6.85;85.26;99148.97;5093622;28;19920;-63
2021/12/08 06:25:41;;;;;;;;;;;6.80;99.90;;;6.92;85.03;99164.59;5093339;28;19924;-63
2021/12/08 06:28:09;;;;;;;;;;;6.80;99.90;;;6.87;85.10;99176.09;5093037;28;19920;-63
2021/12/08 06:30:45;;;;;;;;;;;6.80;99.90;;;6.86;85.21;99158.56;5093185;28;19920;-62
2021/12/08 06:33:14;;;;;;;;;;;6.80;99.90;;;6.89;84.93;99171.69;5093000;28;20336;-63
2021/12/08 06:35:46;;;;;;;;;;;6.80;99.90;;;6.91;85.20;99181.25;5096618;28;19920;-63
2021/12/08 06:38:16;;;;;;;;;;;6.80;99.90;;;6.85;85.02;99172.63;5097008;28;19966;-63
2021/12/08 06:40:47;;;;;;;;;;;6.80;99.90;;;6.87;85.04;99168.22;5078523;28;19981;-63
2021/12/08 06:43:20;;;;;;;;;;;6.80;99.90;;;6.78;85.18;99163.97;5096771;28;19972;-63
2021/12/08 06:45:53;;;;;;;;;;;6.80;99.90;;;6.84;85.10;99179.63;5096486;28;19981;-63
2021/12/08 06:48:23;;;;;;;;;;;6.80;99.90;;;6.85;84.93;99175.25;5096732;28;19926;-63
2021/12/08 06:50:55;;;;;;;;;;;6.80;99.90;;;6.79;85.13;99165.72;5097295;28;19927;-63
2021/12/08 06:53:24;;;;;;;;;;;6.70;99.90;;;6.89;84.99;99167.28;5078530;28;19920;-62
2021/12/08 06:55:56;;;;;;;;;;;6.80;99.90;;;6.92;84.89;99172.50;5096401;28;20317;-63
2021/12/08 06:58:33;;;;;;;;;;;6.80;99.90;;;6.86;84.62;99185.72;5096245;28;19920;-63
2021/12/08 07:01:15;;;;;;;;;;;6.80;99.90;;;6.84;84.64;99184.88;5096421;28;20019;-62
2021/12/08 07:03:53;;;;;;;;;;;6.80;99.90;;;6.81;84.89;99203.34;5096105;28;19955;-62
2021/12/08 07:06:42;;;;;;;;;;;6.70;99.90;;;6.85;84.92;99194.50;5078245;28;19924;-63
2021/12/08 07:09:13;;;;;;;;;;;6.80;99.90;;;6.81;85.02;99198.09;5096365;28;20286;-63
2021/12/08 07:11:42;;;;;;;;;;;6.70;99.90;;;6.73;85.35;99176.31;5096149;28;20297;-63
2021/12/08 07:14:11;;;;;;;;;;;6.70;99.90;;;6.83;85.23;99185.75;5095997;28;20266;-63
2021/12/08 07:16:44;;;;;;;;;;;6.70;99.90;;;6.79;85.31;99185.84;5095895;28;19920;-62
2021/12/08 07:19:23;;;;;;;;;;;6.70;99.90;;;6.76;85.16;99181.50;5095965;28;19920;-63
2021/12/08 07:21:53;;;;;;;;;;;6.70;99.90;;;6.77;85.26;99203.41;5095935;28;19924;-62
2021/12/08 07:24:25;;;;;;;;;;;6.70;99.90;;;6.73;85.37;99185.97;5096151;28;20327;-63
2021/12/08 07:26:57;;;;;;;;;;;6.60;99.90;;;6.77;85.62;99188.53;5095861;28;19924;-62
2021/12/08 07:29:27;;;;;;;;;;;6.70;99.90;;;6.79;85.63;99199.88;5095740;28;19966;-63
2021/12/08 07:31:59;;;;;;;;;;;6.70;99.90;;;6.79;85.51;99180.59;5095733;28;19924;-63
2021/12/08 07:34:28;;;;;;;;;;;6.70;99.90;;;6.76;85.45;99176.25;5096004;28;19924;-63
2021/12/08 07:36:59;;;;;;;;;;;6.70;99.90;;;6.75;85.02;99205.19;5095837;28;19982;-63
2021/12/08 07:39:36;;;;;;;;;;;6.60;99.90;;;6.78;84.78;99211.25;5095381;28;19924;-63
2021/12/08 07:42:08;;;;;;;;;;;6.70;99.90;;;6.74;84.67;99187.66;5095223;28;19924;-63
2021/12/08 07:44:37;;;;;;;;;;;6.60;99.90;;;6.75;84.90;99194.69;5095413;28;19989;-63
2021/12/08 07:47:09;;;;;;;;;;;6.60;99.90;;;6.82;85.06;99186.66;5094427;28;20333;-63
2021/12/08 07:49:40;;;;;;;;;;;6.70;99.90;;;6.77;84.42;99200.78;5095016;28;19920;-62
2021/12/08 07:52:11;;;;;;;;;;;6.70;99.90;;;6.78;84.72;99192.00;5095758;28;19943;-64
2021/12/08 07:54:41;;;;;;;;;;;6.70;99.90;;;6.91;84.79;99201.44;5095289;28;19920;-62
2021/12/08 07:57:16;;;;;;;;;;;6.80;99.90;;;6.81;84.67;99205.97;5095680;28;19920;-63
2021/12/08 07:59:49;;;;;;;;;;;6.70;99.90;;;6.70;84.55;99183.34;5095116;28;20312;-62
2021/12/08 08:02:18;;;;;;;;;;;6.80;99.90;;;6.85;85.05;99212.03;5094993;28;19919;-62
2021/12/08 08:04:49;;;;;;;;;;;6.80;99.90;;;6.81;84.90;99205.97;5095020;28;19920;-62
2021/12/08 08:07:19;;;;;;;;;;;6.80;99.90;;;6.86;85.28;99205.88;5094959;28;19924;-62
2021/12/08 08:09:51;;;;;;;;;;;6.80;99.90;;;7.07;84.64;99219.53;5077035;28;20385;-62
2021/12/08 08:12:22;;;;;;;;;;;7.00;99.90;;;7.20;84.38;99225.47;5095235;28;20285;-63
2021/12/08 08:14:55;;;;;;;;;;;7.10;99.90;;;7.26;83.62;99222.69;5076937;28;20331;-63
2021/12/08 08:17:33;;;;;;;;;;;7.20;99.90;;;7.32;83.21;99224.38;5094811;28;20014;-63
2021/12/08 08:20:05;;;;;;;;;;;7.20;99.90;;;7.33;83.64;99229.59;5094686;28;19920;-62
2021/12/08 08:22:34;;;;;;;;;;;7.20;99.90;;;7.43;83.16;99236.44;5094650;28;19926;-63
2021/12/08 08:25:05;;;;;;;;;;;7.30;99.90;;;7.41;83.09;99240.84;5095219;28;19978;-63
2021/12/08 08:27:33;;;;;;;;;;;7.30;99.90;;;7.39;82.93;99247.91;5094680;28;19927;-63
2021/12/08 08:30:06;;;;;;;;;;;7.30;99.90;;;7.43;82.84;99260.09;5094756;28;20297;-64
2021/12/08 08:32:38;;;;;;;;;;;7.30;99.90;;;6.93;82.92;99142.69;5076692;28;20335;-64
2021/12/08 08:35:11;;;;;;;;;;;7.40;99.90;;;7.61;82.93;99241.34;5094501;28;19973;-64
2021/12/08 08:37:40;;;;;;;;;;;7.50;99.90;;;7.84;82.60;99247.03;5076533;28;19920;-65
2021/12/08 08:40:18;;;;;;;;;;;7.70;99.90;;;8.04;81.20;99229.06;5094604;28;20015;-64
2021/12/08 08:42:51;;;;;;;;;;;7.90;99.90;;;8.13;80.57;99243.78;5094262;28;19920;-65
2021/12/08 08:45:25;;;;;;;;;;;8.00;99.90;;;8.33;80.63;99240.78;5094250;28;20339;-65
2021/12/08 08:48:00;;;;;;;;;;;8.10;99.90;;;8.36;79.98;99240.72;5094162;28;19920;-64
2021/12/08 08:50:31;;;;;;;;;;;8.30;99.90;;;7.96;80.03;99220.47;5076373;28;20057;-68
2021/12/08 08:53:01;;;;;;;;;;;8.10;99.90;;;8.00;80.63;99237.94;5094169;28;19964;-65
2021/12/08 08:55:48;;;;;;;;;;;7.90;99.90;;;7.33;80.40;99134.94;5076404;28;19979;-66
2021/12/08 08:58:18;;;;;;;;;;;7.90;99.90;;;7.88;80.68;99253.97;5093450;28;20335;-64
2021/12/08 09:00:49;;;;;;;;;;;7.80;99.90;;;7.82;80.93;99242.72;5094068;28;19920;-64
2021/12/08 09:03:22;;;;;;;;;;;7.70;99.90;;;7.90;81.49;99251.28;5094390;28;19951;-64
2021/12/08 09:05:54;;;;;;;;;;;7.80;99.90;;;7.86;81.47;99247.88;5094317;28;20277;-64
2021/12/08 09:08:25;;;;;;;;;;;7.80;99.90;;;7.90;81.17;99261.81;5076022;28;19985;-64
2021/12/08 09:10:56;;;;;;;;;;;7.80;99.90;;;7.85;80.95;99261.06;5093764;28;19920;-64
2021/12/08 09:13:28;;;;;;;;;;;7.80;99.90;;;7.62;81.22;99261.50;5094495;28;19927;-63
2021/12/08 09:16:00;;;;;;;;;;;7.60;99.90;;;7.50;81.70;99232.78;5076025;28;19965;-64
2021/12/08 09:18:38;;;;;;;;;;;7.50;99.90;;;7.42;82.15;99266.25;5093880;28;20266;-63
2021/12/08 09:21:14;;;;;;;;;;;7.40;99.90;;;7.21;82.02;99261.34;5075932;28;19920;-63
2021/12/08 09:23:48;;;;;;;;;;;7.30;99.90;;;7.25;82.90;99260.41;5093965;28;20296;-63
2021/12/08 09:26:22;;;;;;;;;;;7.20;99.90;;;7.19;82.82;99258.75;5093687;28;19920;-64
2021/12/08 09:28:53;;;;;;;;;;;7.20;99.90;;;7.30;82.97;99272.59;5093558;28;19977;-65
2021/12/08 09:31:25;;;;;;;;;;;7.20;99.90;;;7.28;82.87;99286.63;5075775;28;19920;-65
2021/12/08 09:34:01;;;;;;;;;;;7.20;99.90;;;7.22;82.90;99286.75;5075811;28;19920;-65
2021/12/08 09:36:33;;;;;;;;;;;7.20;99.90;;;7.16;83.29;99284.25;5093873;28;19926;-64
2021/12/08 09:39:06;;;;;;;;;;;7.10;99.90;;;7.18;83.65;99328.00;5093544;28;19920;-63
2021/12/08 09:41:37;;;;;;;;;;;7.20;99.90;;;7.18;83.62;99269.31;5075625;28;20292;-63
2021/12/08 09:44:09;;;;;;;;;;;7.10;99.90;;;7.18;83.68;99264.91;5093316;28;19919;-68
2021/12/08 09:46:40;;;;;;;;;;;7.10;99.90;;;7.39;83.50;99295.25;5093509;28;19942;-69
2021/12/08 09:49:12;;;;;;;;;;;7.30;99.90;;;7.46;82.76;99301.25;5093516;28;19927;-67
2021/12/08 09:51:41;;;;;;;;;;;7.30;99.90;;;7.42;82.66;99287.28;5075604;28;19939;-67
2021/12/08 09:54:09;;;;;;;;;;;7.40;99.90;;;7.57;83.05;99312.47;5093330;28;19920;-65
2021/12/08 09:56:39;;;;;;;;;;;7.40;99.90;;;7.24;82.70;99253.41;5093358;28;19920;-64
2021/12/08 09:59:09;;;;;;;;;;;7.50;99.90;;;7.49;82.32;99299.41;5093541;28;20269;-63
2021/12/08 10:01:39;;;;;;;;;;;7.40;99.90;;;7.44;82.29;99317.06;5093592;28;20049;-65
2021/12/08 10:04:11;;;;;;;;;;;7.40;99.90;;;7.36;82.40;99329.47;5075341;28;19943;-65
2021/12/08 10:06:40;;;;;;;;;;;7.30;99.90;;;7.37;82.70;99344.38;5075554;28;19942;-64
2021/12/08 10:09:09;;;;;;;;;;;7.30;99.90;;;7.35;82.69;99359.28;5094371;28;19920;-63
2021/12/08 10:11:38;;;;;;;;;;;7.30;99.90;;;7.35;82.63;99327.75;5079322;28;19985;-63
2021/12/08 10:14:07;;;;;;;;;;;7.30;99.90;;;7.34;82.88;99365.44;5097172;28;19920;-65
2021/12/08 10:16:36;;;;;;;;;;;7.30;99.90;;;7.29;83.10;99347.13;5097108;28;19954;-69
2021/12/08 10:19:05;;;;;;;;;;;7.20;99.90;;;7.21;82.84;99345.50;5079144;28;19919;-65
2021/12/08 10:21:37;;;;;;;;;;;7.20;99.90;;;7.12;82.90;99340.38;5079011;28;19955;-63
2021/12/08 10:24:14;;;;;;;;;;;7.10;99.90;;;7.21;83.30;99316.56;5078807;28;19927;-65
2021/12/08 10:26:43;;;;;;;;;;;7.10;99.90;;;7.23;83.30;99320.91;5096882;28;19942;-64
2021/12/08 10:29:12;;;;;;;;;;;7.20;99.90;;;7.19;82.67;99340.25;5097172;28;19955;-64
2021/12/08 10:31:43;;;;;;;;;;;7.10;99.90;;;7.29;82.54;99327.84;5079163;28;20396;-64
2021/12/08 10:34:22;;;;;;;;;;;7.20;99.90;;;7.12;82.55;99301.78;5097149;28;19920;-64
2021/12/08 10:36:55;;;;;;;;;;;7.20;99.90;;;7.37;82.46;99315.44;5078867;28;20022;-64
2021/12/08 10:39:29;;;;;;;;;;;7.20;99.90;;;7.30;82.31;99305.88;5097641;28;19920;-65
2021/12/08 10:42:18;;;;;;;;;;;7.30;99.90;;;7.44;82.25;99330.22;5096705;28;20403;-65
2021/12/08 10:44:52;;;;;;;;;;;7.30;99.90;;;7.36;81.41;99297.03;5078695;28;19927;-64
2021/12/08 10:47:27;;;;;;;;;;;7.40;99.90;;;6.89;80.83;99198.81;5078317;28;19920;-65
2021/12/08 10:55:39;;;;;;;;;;;7.70;99.90;;;8.06;79.87;99342.25;5097040;28;19955;-64
2021/12/08 10:58:08;;;;;;;;;;;8.00;99.90;;;7.99;79.43;99328.31;5078538;28;19920;-63
2021/12/08 11:00:39;;;;;;;;;;;7.90;99.90;;;8.02;79.62;99369.53;5096263;28;19920;-63
2021/12/08 11:03:11;;;;;;;;;;;7.90;99.90;;;7.92;79.43;99349.53;5096317;28;19928;-62
2021/12/08 11:05:46;;;;;;;;;;;7.80;99.90;;;7.95;79.70;99318.78;5096244;28;19995;-64
2021/12/08 11:08:19;;;;;;;;;;;7.80;99.90;;;8.08;79.38;99320.28;5078350;28;19973;-63
2021/12/08 11:10:51;;;;;;;;;;;8.00;99.90;;;8.19;79.22;99331.44;5096125;28;19924;-63
2021/12/08 11:13:21;;;;;;;;;;;8.10;99.90;;;8.16;78.98;99323.63;5096409;28;19975;-62
2021/12/08 11:15:59;;;;;;;;;;;8.00;99.90;;;7.37;78.46;99186.56;5096024;28;19938;-64
2021/12/08 11:18:30;;;;;;;;;;;8.10;99.90;;;8.21;78.52;99332.28;5078179;28;20319;-67
2021/12/08 11:21:00;;;;;;;;;;;8.10;99.90;;;8.38;78.54;99342.50;5095127;28;19920;-64
2021/12/08 11:23:43;;;;;;;;;;;8.20;99.90;;;8.40;78.10;99343.34;5095873;28;19927;-63
2021/12/08 11:26:17;;;;;;;;;;;8.30;99.90;;;8.58;78.43;99361.41;5096545;28;19931;-63
2021/12/08 11:28:52;;;;;;;;;;;8.40;99.90;;;8.47;77.47;99352.88;5095907;28;20005;-66
2021/12/08 11:31:21;;;;;;;;;;;8.40;99.90;;;8.48;77.36;99332.69;5095930;28;19942;-65
2021/12/08 11:33:59;;;;;;;;;;;8.40;99.90;;;8.49;76.96;99313.31;5095986;28;20014;-64
2021/12/08 11:36:30;;;;;;;;;;;8.40;99.90;;;8.79;76.56;99331.09;5096146;28;20014;-65
2021/12/08 11:39:10;;;;;;;;;;;8.60;99.90;;;8.78;76.07;99366.28;5095706;28;19924;-67
2021/12/08 11:41:40;;;;;;;;;;;8.70;99.90;;;9.08;75.67;99344.50;5095728;28;19927;-63
2021/12/08 11:47:54;;;;;;;;;;;9.10;99.90;;;9.19;73.89;99321.41;5071971;22;19916;-71
2021/12/08 11:50:23;;;;;;;;;;;9.30;99.90;;;9.17;73.70;99315.28;5054202;28;19921;-66
2021/12/08 11:52:58;;;;;;;;;;;9.30;99.90;;;9.41;73.58;99372.72;5055408;28;19928;-64
2021/12/08 11:55:29;;;;;;;;;;;9.40;99.90;;;9.37;73.34;99363.16;5011686;28;20349;-65
2021/12/08 11:57:58;;;;;;;;;;;9.30;99.90;;;9.31;72.75;99343.97;5015109;28;19987;-65
2021/12/08 12:00:28;;;;;;;;;;;9.30;99.90;;;9.48;73.56;99355.00;5015546;28;20015;-65
2021/12/08 12:03:02;;;;;;;;;;;9.40;99.90;;;9.46;72.92;99322.50;5015851;28;19921;-64
2021/12/08 12:05:34;;;;;;;;;;;9.40;99.90;;;9.63;73.26;99350.19;5014961;28;19967;-63
2021/12/08 12:08:04;;;;;;;;;;;9.50;99.90;;;9.66;72.67;99322.84;5014275;28;19921;-64
2021/12/08 12:10:36;;;;;;;;;;;9.60;99.90;;;9.72;72.05;99338.53;5014929;28;19922;-63
2021/12/08 12:13:08;;;;;;;;;;;9.60;99.90;;;9.64;71.88;99344.00;5014628;28;19922;-69
2021/12/08 12:15:38;;;;;;;;;;;9.50;99.90;;;9.46;72.20;99326.00;5014888;28;19928;-69
2021/12/08 12:18:07;;;;;;;;;;;9.40;99.90;;;9.63;72.03;99381.00;5015453;28;19921;-69
2021/12/08 12:20:39;;;;;;;;;;;9.50;99.90;;;9.75;72.17;99368.38;4997477;28;20330;-65
2021/12/08 12:23:36;;;;;;;;;;;9.60;99.90;;;9.74;71.85;99360.47;5016801;28;19921;-64
2021/12/08 12:26:18;;;;;;;;;;;9.60;99.90;;;9.50;71.98;99345.25;5014700;28;19925;-63
2021/12/08 12:28:57;;;;;;;;;;;9.60;99.90;;;9.72;72.17;99367.56;5014704;28;19921;-63
2021/12/08 12:31:27;;;;;;;;;;;9.60;99.90;;;9.81;73.05;99391.13;5014840;28;19921;-63